Terminal Aerodrome Forecast
Issued by NWS

Home | Current Version | Previous Version | Text Only | Print | Product List | Glossary On
Versions: 1 2 3 4 5 6 7 8 9 10 11 12 13 14 15 16 17 18 19 20 21 22 23 24 25
000
FTUS46 KMFR 272342
TAFOTH
TAF
KOTH 272342Z 2800/2824 36025G32KT P6SM SKC
     FM280300 36018G24KT P6SM SCT009
     FM280600 36013KT 3SM BR SCT004 OVC008
     FM281200 01005KT 1SM BR BKN002 OVC004
     FM281800 35018G28KT P6SM SCT009=

USA.gov is the U.S. government's official web portal to all federal, state and local government web resources and services.